Time;durP1;ratioP1;P1;durP2;ratioP2;P2;SDS_P1;SDS_P2;PMS_P1;PMS_P2;Temp;Humidity;BMP_temperature;BMP_pressure;BME280_temperature;BME280_humidity;BME280_pressure;Samples;Min_cycle;Max_cycle;Signal;HPM_P1;HPM_P2
2023/02/09 00:00:03;;;;;;;;;;;;;;;12.04;67.07;102840.38;1267308;23;669;-69
2023/02/09 00:00:53;;;;;;;;;;;;;;;12.02;66.45;102839.56;1267368;23;739;-68
2023/02/09 00:01:43;;;;;;;;;;;;;;;12.02;67.30;102836.88;1267358;23;594;-68
2023/02/09 00:02:34;;;;;;;;;;;;;;;11.99;67.16;102839.69;1267340;23;751;-68
2023/02/09 00:03:24;;;;;;;;;;;;;;;12.00;67.36;102838.75;1267266;23;598;-68
2023/02/09 00:04:15;;;;;;;;;;;;;;;11.98;67.32;102829.94;1267389;23;625;-68
2023/02/09 00:05:05;;;;;;;;;;;;;;;11.98;66.40;102835.28;1267394;23;645;-69
2023/02/09 00:05:55;;;;;;;;;;;;;;;12.01;67.25;102835.13;1267208;23;696;-69
2023/02/09 00:06:46;;;;;;;;;;;;;;;12.02;66.33;102833.34;1266246;23;1936;-69
2023/02/09 00:07:36;;;;;;;;;;;;;;;12.00;66.50;102837.91;1266950;23;661;-69
2023/02/09 00:08:27;;;;;;;;;;;;;;;11.98;67.58;102837.97;1272018;23;645;-68
2023/02/09 00:09:17;;;;;;;;;;;;;;;11.98;67.03;102839.75;1272980;23;665;-69
2023/02/09 00:10:08;;;;;;;;;;;;;;;11.98;66.56;102835.28;1266660;23;846;-68
2023/02/09 00:10:58;;;;;;;;;;;;;;;11.97;66.57;102833.53;1267263;23;696;-68
2023/02/09 00:14:08;;;;;;;;;;;;;;;11.97;66.68;102833.53;1266471;23;606;-68
2023/02/09 00:14:59;;;;;;;;;;;;;;;11.98;66.65;102837.09;1267496;23;709;-69
2023/02/09 00:15:49;;;;;;;;;;;;;;;11.95;67.29;102830.06;1267350;23;665;-69
2023/02/09 00:16:39;;;;;;;;;;;;;;;11.96;67.27;102831.81;1267444;23;692;-69
2023/02/09 00:17:30;;;;;;;;;;;;;;;11.98;67.14;102837.09;1267348;23;630;-69
2023/02/09 00:18:20;;;;;;;;;;;;;;;11.94;67.03;102827.44;1267283;23;630;-68
2023/02/09 00:19:11;;;;;;;;;;;;;;;11.95;67.09;102834.53;1267313;23;681;-69
2023/02/09 00:20:01;;;;;;;;;;;;;;;11.94;66.84;102831.00;1267382;23;657;-69
2023/02/09 00:20:52;;;;;;;;;;;;;;;11.93;66.70;102831.03;1267373;23;680;-69
2023/02/09 00:21:42;;;;;;;;;;;;;;;11.92;67.71;102830.16;1267378;23;649;-69
2023/02/09 00:22:33;;;;;;;;;;;;;;;11.95;66.92;102824.72;1266742;23;808;-69
2023/02/09 00:23:23;;;;;;;;;;;;;;;11.95;66.68;102831.84;1267205;23;626;-69
2023/02/09 00:24:13;;;;;;;;;;;;;;;11.97;66.72;102825.53;1267265;23;637;-69
2023/02/09 00:25:04;;;;;;;;;;;;;;;11.96;66.98;102823.78;1267453;23;642;-69
2023/02/09 00:25:54;;;;;;;;;;;;;;;11.95;66.68;102824.72;1267305;23;633;-69
2023/02/09 00:26:45;;;;;;;;;;;;;;;11.96;66.80;102825.59;1267080;23;1881;-69
2023/02/09 00:27:35;;;;;;;;;;;;;;;11.97;66.57;102817.50;1267311;23;657;-68
2023/02/09 00:28:25;;;;;;;;;;;;;;;11.98;67.26;102823.72;1267278;23;629;-69
2023/02/09 00:29:20;;;;;;;;;;;;;;;11.97;66.49;102820.19;1267397;23;673;-68
2023/02/09 00:30:10;;;;;;;;;;;;;;;11.97;67.35;102822.84;1267301;23;617;-69
2023/02/09 00:31:01;;;;;;;;;;;;;;;11.93;66.85;102823.91;1267341;23;696;-68
2023/02/09 00:31:51;;;;;;;;;;;;;;;11.92;67.43;102821.28;1267305;23;610;-69
2023/02/09 00:32:42;;;;;;;;;;;;;;;11.94;66.93;102822.09;1267377;23;744;-69
2023/02/09 00:33:32;;;;;;;;;;;;;;;11.93;67.07;102821.22;1267207;23;629;-69
2023/02/09 00:34:22;;;;;;;;;;;;;;;11.94;66.81;102820.31;1267296;23;641;-69
2023/02/09 00:35:13;;;;;;;;;;;;;;;11.96;66.89;102826.47;1267082;23;1035;-69
2023/02/09 00:36:03;;;;;;;;;;;;;;;11.96;66.84;102821.13;1267359;23;672;-69
2023/02/09 00:36:54;;;;;;;;;;;;;;;11.98;66.83;102821.06;1266624;23;653;-69
2023/02/09 00:37:44;;;;;;;;;;;;;;;11.98;66.64;102829.06;1267296;23;726;-69
2023/02/09 00:38:34;;;;;;;;;;;;;;;11.93;66.64;102823.91;1267373;23;657;-69
2023/02/09 00:39:25;;;;;;;;;;;;;;;11.94;66.45;102816.75;1267370;23;750;-69
2023/02/09 00:40:15;;;;;;;;;;;;;;;11.92;67.27;102818.63;1267273;23;661;-69
2023/02/09 00:41:06;;;;;;;;;;;;;;;11.94;67.15;102824.78;1267304;23;873;-69
2023/02/09 00:42:05;;;;;;;;;;;;;;;11.93;67.08;102823.91;1267275;23;630;-69
2023/02/09 00:42:56;;;;;;;;;;;;;;;11.94;66.52;102819.44;1267350;23;862;-69
2023/02/09 00:43:46;;;;;;;;;;;;;;;11.89;67.67;102811.59;1267265;23;716;-69
2023/02/09 00:44:36;;;;;;;;;;;;;;;11.86;67.10;102808.16;1267220;23;806;-68
2023/02/09 00:45:28;;;;;;;;;;;;;;;11.87;67.68;102810.78;1267402;23;689;-69
2023/02/09 00:46:18;;;;;;;;;;;;;;;11.89;67.60;102808.91;1267217;23;676;-68
2023/02/09 00:47:09;;;;;;;;;;;;;;;11.92;66.69;102808.81;1267234;23;1937;-69
2023/02/09 00:47:59;;;;;;;;;;;;;;;11.89;66.67;102808.91;1267650;23;661;-69
2023/02/09 00:48:49;;;;;;;;;;;;;;;11.89;66.53;102803.56;1267757;23;613;-69
2023/02/09 00:49:40;;;;;;;;;;;;;;;11.86;67.19;102808.16;1267637;23;606;-69
2023/02/09 00:50:30;;;;;;;;;;;;;;;11.86;66.97;102809.03;1267696;23;641;-69
2023/02/09 00:51:21;;;;;;;;;;;;;;;11.86;67.69;102814.38;1267065;23;630;-69
2023/02/09 00:52:11;;;;;;;;;;;;;;;11.82;66.88;102813.63;1267722;23;656;-69
2023/02/09 00:53:02;;;;;;;;;;;;;;;11.82;67.76;102815.44;1267775;23;617;-69
2023/02/09 00:53:52;;;;;;;;;;;;;;;11.83;66.90;102809.13;1272623;23;613;-68
2023/02/09 00:54:43;;;;;;;;;;;;;;;11.82;67.38;102810.09;1272644;23;680;-68
2023/02/09 00:55:33;;;;;;;;;;;;;;;11.83;67.55;102810.00;1267813;23;645;-68
2023/02/09 00:56:24;;;;;;;;;;;;;;;11.87;67.24;102816.13;1272624;23;670;-68
2023/02/09 00:57:14;;;;;;;;;;;;;;;11.89;67.37;102816.94;1272508;23;661;-69
2023/02/09 00:58:04;;;;;;;;;;;;;;;11.88;66.84;102820.53;1267882;23;691;-68
2023/02/09 00:58:55;;;;;;;;;;;;;;;11.90;67.35;102817.78;1267696;23;614;-68
2023/02/09 00:59:45;;;;;;;;;;;;;;;11.90;66.94;102809.78;1272438;23;620;-68
2023/02/09 01:00:36;;;;;;;;;;;;;;;11.89;66.57;102816.06;1273361;23;621;-69
2023/02/09 01:01:26;;;;;;;;;;;;;;;11.84;67.73;102816.22;1267875;23;650;-68
2023/02/09 01:02:17;;;;;;;;;;;;;;;11.83;67.21;102819.81;1267686;23;708;-69
2023/02/09 01:03:07;;;;;;;;;;;;;;;11.83;67.20;102812.69;1267654;23;623;-69
2023/02/09 01:03:57;;;;;;;;;;;;;;;11.85;67.46;102817.09;1267733;23;658;-68
2023/02/09 01:04:48;;;;;;;;;;;;;;;11.86;66.91;102814.38;1267751;23;606;-69
2023/02/09 01:05:39;;;;;;;;;;;;;;;11.88;67.27;102814.31;1267730;23;625;-68
2023/02/09 01:06:29;;;;;;;;;;;;;;;11.89;67.42;102810.72;1267703;23;625;-68
2023/02/09 01:07:19;;;;;;;;;;;;;;;11.87;66.60;102810.78;1267750;23;636;-68
2023/02/09 01:08:10;;;;;;;;;;;;;;;11.86;66.69;102818.84;1267604;23;633;-68
2023/02/09 01:09:00;;;;;;;;;;;;;;;11.84;67.62;102810.88;1267639;23;672;-68
2023/02/09 01:09:51;;;;;;;;;;;;;;;11.83;67.27;102806.47;1267746;23;791;-68
2023/02/09 01:10:41;;;;;;;;;;;;;;;11.85;67.08;102817.09;1267663;23;649;-68
2023/02/09 01:11:32;;;;;;;;;;;;;;;11.83;66.96;102806.47;1267630;23;617;-68
2023/02/09 01:12:22;;;;;;;;;;;;;;;11.80;66.97;102811.97;1267564;23;649;-68
2023/02/09 01:13:12;;;;;;;;;;;;;;;11.80;67.65;102804.81;1267609;23;657;-68
2023/02/09 01:14:03;;;;;;;;;;;;;;;11.83;66.72;102811.81;1267700;23;673;-68
2023/02/09 01:14:53;;;;;;;;;;;;;;;11.81;66.97;102811.91;1267697;23;613;-68
2023/02/09 01:15:44;;;;;;;;;;;;;;;11.80;66.71;102812.84;1267708;23;617;-68
2023/02/09 01:16:34;;;;;;;;;;;;;;;11.81;67.11;102805.69;1267533;23;661;-68
2023/02/09 01:17:25;;;;;;;;;;;;;;;11.80;66.70;102807.50;1267706;23;707;-68
2023/02/09 01:18:15;;;;;;;;;;;;;;;11.82;66.83;102810.09;1267688;23;625;-68
2023/02/09 01:19:05;;;;;;;;;;;;;;;11.80;67.40;102801.28;1267839;23;622;-68
2023/02/09 01:19:56;;;;;;;;;;;;;;;11.79;67.66;102813.75;1267836;23;613;-68
2023/02/09 01:20:46;;;;;;;;;;;;;;;11.77;67.95;102806.72;1272522;23;641;-68
2023/02/09 01:21:37;;;;;;;;;;;;;;;11.77;67.57;102807.59;1273308;23;640;-68
2023/02/09 01:22:27;;;;;;;;;;;;;;;11.78;67.80;102806.66;1266943;23;605;-68
2023/02/09 01:23:18;;;;;;;;;;;;;;;11.78;67.77;102803.13;1267566;23;661;-68
2023/02/09 01:24:08;;;;;;;;;;;;;;;11.77;67.56;102798.72;1267702;23;669;-68
2023/02/09 01:24:58;;;;;;;;;;;;;;;11.78;67.26;102796.00;1267625;23;648;-68
2023/02/09 01:25:49;;;;;;;;;;;;;;;11.77;67.38;102791.56;1267732;23;652;-68
2023/02/09 01:26:39;;;;;;;;;;;;;;;11.74;67.66;102796.13;1267612;23;625;-69
2023/02/09 01:27:30;;;;;;;;;;;;;;;11.73;67.58;102797.91;1267668;23;790;-68
2023/02/09 01:28:20;;;;;;;;;;;;;;;11.74;67.40;102799.66;1267655;23;622;-69
2023/02/09 01:29:11;;;;;;;;;;;;;;;11.73;67.34;102789.03;1267620;23;750;-69
2023/02/09 01:30:01;;;;;;;;;;;;;;;11.73;67.09;102797.06;1267684;23;653;-68
2023/02/09 01:30:51;;;;;;;;;;;;;;;11.75;68.02;102797.88;1267647;23;622;-68
2023/02/09 01:31:42;;;;;;;;;;;;;;;11.75;66.93;102800.53;1267638;23;1033;-69
2023/02/09 01:32:32;;;;;;;;;;;;;;;11.74;67.73;102801.47;1267644;23;646;-68
2023/02/09 01:33:23;;;;;;;;;;;;;;;11.69;67.41;102798.09;1267477;23;672;-68
2023/02/09 01:34:13;;;;;;;;;;;;;;;11.68;67.74;102794.53;1267652;23;661;-68
2023/02/09 01:35:03;;;;;;;;;;;;;;;11.68;67.81;102801.69;1267042;23;630;-68
2023/02/09 01:35:54;;;;;;;;;;;;;;;11.68;67.41;102799.88;1267493;23;641;-68
2023/02/09 01:36:44;;;;;;;;;;;;;;;11.67;67.21;102795.47;1272487;23;625;-68
2023/02/09 01:37:35;;;;;;;;;;;;;;;11.67;67.75;102794.59;1266395;23;652;-68
2023/02/09 01:38:25;;;;;;;;;;;;;;;11.68;67.51;102793.69;1266313;23;641;-68
2023/02/09 01:39:15;;;;;;;;;;;;;;;11.71;67.18;102790.91;1266653;23;606;-68
2023/02/09 01:40:06;;;;;;;;;;;;;;;11.71;67.84;102791.75;1267696;23;688;-68
2023/02/09 01:40:56;;;;;;;;;;;;;;;11.72;67.85;102797.97;1267679;23;669;-68
2023/02/09 01:41:47;;;;;;;;;;;;;;;11.69;67.23;102792.75;1272602;23;701;-68
2023/02/09 01:42:37;;;;;;;;;;;;;;;11.67;67.56;102792.81;1272508;23;615;-68
2023/02/09 01:43:28;;;;;;;;;;;;;;;11.66;67.59;102790.19;1267585;23;687;-68
2023/02/09 01:44:18;;;;;;;;;;;;;;;11.68;67.13;102788.34;1267616;23;685;-68
2023/02/09 01:45:08;;;;;;;;;;;;;;;11.68;67.79;102783.00;1267598;23;660;-68
2023/02/09 01:45:59;;;;;;;;;;;;;;;11.67;67.72;102786.59;1267488;23;669;-68
2023/02/09 01:46:49;;;;;;;;;;;;;;;11.68;67.73;102785.66;1267488;23;1897;-69
2023/02/09 01:47:40;;;;;;;;;;;;;;;11.70;67.48;102789.16;1267536;23;634;-69
2023/02/09 01:48:30;;;;;;;;;;;;;;;11.68;67.40;102785.66;1267367;23;621;-69
2023/02/09 01:49:21;;;;;;;;;;;;;;;11.69;67.13;102792.75;1267021;23;653;-69
2023/02/09 01:50:11;;;;;;;;;;;;;;;11.68;67.79;102785.66;1267499;23;669;-69
2023/02/09 01:51:01;;;;;;;;;;;;;;;11.68;67.09;102785.66;1267452;23;650;-69
2023/02/09 01:51:52;;;;;;;;;;;;;;;11.68;67.75;102786.53;1267590;23;610;-68
2023/02/09 01:52:42;;;;;;;;;;;;;;;11.69;67.82;102790.06;1267556;23;610;-69
2023/02/09 01:53:33;;;;;;;;;;;;;;;11.70;67.57;102790.03;1267435;23;759;-68
2023/02/09 01:54:23;;;;;;;;;;;;;;;11.69;67.94;102790.06;1267606;23;602;-68
2023/02/09 01:55:13;;;;;;;;;;;;;;;11.70;67.18;102791.81;1267519;23;614;-68
2023/02/09 01:56:04;;;;;;;;;;;;;;;11.67;67.83;102779.44;1267657;23;677;-69
2023/02/09 01:56:54;;;;;;;;;;;;;;;11.66;67.97;102790.19;1267607;23;621;-68
2023/02/09 01:57:45;;;;;;;;;;;;;;;11.67;67.90;102783.91;1267595;23;661;-68
2023/02/09 01:58:35;;;;;;;;;;;;;;;11.66;67.69;102782.19;1267442;23;654;-68
2023/02/09 01:59:26;;;;;;;;;;;;;;;11.66;67.28;102780.38;1267470;23;672;-68
2023/02/09 02:00:16;;;;;;;;;;;;;;;11.65;67.16;102778.63;1267561;23;779;-68
2023/02/09 02:01:06;;;;;;;;;;;;;;;11.66;67.37;102779.50;1267516;23;602;-68
2023/02/09 02:01:57;;;;;;;;;;;;;;;11.66;68.21;102775.03;1267619;23;676;-68
2023/02/09 02:02:47;;;;;;;;;;;;;;;11.66;67.49;102767.03;1267475;23;619;-69
2023/02/09 02:03:38;;;;;;;;;;;;;;;11.68;67.24;102772.31;1267562;23;650;-69
2023/02/09 02:04:29;;;;;;;;;;;;;;;11.68;67.69;102767.84;1267483;23;767;-69
2023/02/09 02:05:20;;;;;;;;;;;;;;;11.70;67.51;102762.44;1267492;23;602;-69
2023/02/09 02:06:10;;;;;;;;;;;;;;;11.71;67.64;102761.50;1267526;23;622;-69
2023/02/09 02:07:00;;;;;;;;;;;;;;;11.68;68.01;102766.97;1267428;23;1922;-69
2023/02/09 02:07:51;;;;;;;;;;;;;;;11.68;67.75;102767.84;1267432;23;727;-69
2023/02/09 02:08:41;;;;;;;;;;;;;;;11.67;67.89;102763.44;1267557;23;634;-69
2023/02/09 02:09:32;;;;;;;;;;;;;;;11.69;67.56;102766.91;1267513;23;625;-68
2023/02/09 02:10:22;;;;;;;;;;;;;;;11.68;67.78;102758.97;1267555;23;614;-68
2023/02/09 02:11:12;;;;;;;;;;;;;;;11.66;67.22;102766.16;1267675;23;622;-69
2023/02/09 02:12:03;;;;;;;;;;;;;;;11.64;68.03;102760.03;1267630;23;649;-68
2023/02/09 02:12:53;;;;;;;;;;;;;;;11.65;68.17;102767.97;1267567;23;626;-68
2023/02/09 02:13:44;;;;;;;;;;;;;;;11.68;67.90;102761.63;1267587;23;661;-68
2023/02/09 02:14:34;;;;;;;;;;;;;;;11.69;67.94;102768.72;1267604;23;610;-68
2023/02/09 02:15:25;;;;;;;;;;;;;;;11.68;68.01;102757.16;1267498;23;614;-68
2023/02/09 02:16:15;;;;;;;;;;;;;;;11.67;67.51;102752.75;1267627;23;658;-68
2023/02/09 02:17:05;;;;;;;;;;;;;;;11.65;67.19;102756.41;1267559;23;621;-69
2023/02/09 02:17:56;;;;;;;;;;;;;;;11.65;68.01;102757.28;1267553;23;546;-68
2023/02/09 02:18:46;;;;;;;;;;;;;;;11.64;67.74;102760.03;1267545;23;665;-68
2023/02/09 02:19:37;;;;;;;;;;;;;;;11.62;68.10;102764.56;1267444;23;649;-68
2023/02/09 02:20:27;;;;;;;;;;;;;;;11.62;67.45;102757.41;1267558;23;645;-68
2023/02/09 02:21:18;;;;;;;;;;;;;;;11.60;67.74;102761.06;1267543;23;692;-68
2023/02/09 02:22:08;;;;;;;;;;;;;;;11.61;67.44;102758.34;1267621;23;685;-68
2023/02/09 02:22:59;;;;;;;;;;;;;;;11.63;68.05;102761.84;1267402;23;735;-69
2023/02/09 02:23:49;;;;;;;;;;;;;;;11.64;68.09;102760.03;1268374;23;741;-69
2023/02/09 02:24:39;;;;;;;;;;;;;;;11.62;68.10;102765.44;1267497;23;664;-68
2023/02/09 02:25:30;;;;;;;;;;;;;;;11.64;67.34;102760.03;1267524;23;598;-68
2023/02/09 02:26:20;;;;;;;;;;;;;;;11.63;67.21;102767.19;1267525;23;649;-68
2023/02/09 02:27:11;;;;;;;;;;;;;;;11.63;67.68;102761.84;1267420;23;1935;-68
2023/02/09 02:28:01;;;;;;;;;;;;;;;11.66;67.05;102758.16;1267535;23;712;-68
2023/02/09 02:28:52;;;;;;;;;;;;;;;11.65;67.57;102756.41;1267516;23;607;-68
2023/02/09 02:29:42;;;;;;;;;;;;;;;11.64;67.09;102755.56;1267418;23;638;-68
2023/02/09 02:30:33;;;;;;;;;;;;;;;11.64;67.64;102760.03;1267354;23;650;-68
2023/02/09 02:31:23;;;;;;;;;;;;;;;11.64;67.91;102757.38;1267465;23;645;-68
2023/02/09 02:32:13;;;;;;;;;;;;;;;11.63;67.30;102755.63;1267194;23;633;-68
2023/02/09 02:33:04;;;;;;;;;;;;;;;11.63;66.95;102766.31;1266777;23;895;-68
2023/02/09 02:33:54;;;;;;;;;;;;;;;11.64;67.63;102763.56;1267417;23;634;-67
2023/02/09 02:34:45;;;;;;;;;;;;;;;11.62;67.63;102768.09;1267345;23;625;-69
2023/02/09 02:35:35;;;;;;;;;;;;;;;11.62;67.71;102765.44;1272227;23;1218;-68
2023/02/09 02:36:25;;;;;;;;;;;;;;;11.60;67.13;102761.06;1273157;23;673;-68
2023/02/09 02:37:16;;;;;;;;;;;;;;;11.59;67.16;102759.34;1267611;23;649;-69
2023/02/09 02:38:06;;;;;;;;;;;;;;;11.58;67.81;102762.94;1267530;23;665;-68
2023/02/09 02:38:57;;;;;;;;;;;;;;;11.58;67.84;102760.25;1267452;23;743;-69
2023/02/09 02:39:48;;;;;;;;;;;;;;;11.57;67.57;102756.72;1267280;23;618;-68
2023/02/09 02:40:39;;;;;;;;;;;;;;;11.59;68.16;102762.00;1267385;23;688;-69
2023/02/09 02:42:46;;;;;;;;;;;;;;;11.58;68.06;102761.13;1267339;23;661;-69
2023/02/09 02:42:48;;;;;;;;;;;;;;;11.57;67.18;102761.19;1267392;23;629;-69
2023/02/09 02:43:39;;;;;;;;;;;;;;;11.55;68.01;102755.03;1267347;23;661;-69
2023/02/09 02:44:29;;;;;;;;;;;;;;;11.55;67.86;102755.03;1267482;23;618;-69
2023/02/09 02:45:20;;;;;;;;;;;;;;;11.53;67.42;102751.53;1267418;23;645;-69
2023/02/09 02:46:10;;;;;;;;;;;;;;;11.52;68.15;102750.69;1267251;23;602;-68
2023/02/09 02:47:01;;;;;;;;;;;;;;;11.51;67.39;102753.41;1267250;23;1939;-68
2023/02/09 02:47:51;;;;;;;;;;;;;;;11.51;67.58;102753.41;1267427;23;614;-68
2023/02/09 02:48:41;;;;;;;;;;;;;;;11.51;68.20;102754.28;1267437;23;606;-68
2023/02/09 02:49:32;;;;;;;;;;;;;;;11.53;68.21;102747.06;1267199;23;661;-69
2023/02/09 02:50:22;;;;;;;;;;;;;;;11.55;67.51;102739.00;1267512;23;662;-69
2023/02/09 02:51:13;;;;;;;;;;;;;;;11.56;67.47;102748.75;1267348;23;626;-68
2023/02/09 02:52:03;;;;;;;;;;;;;;;11.58;67.28;102738.91;1267436;23;649;-69
2023/02/09 02:52:55;;;;;;;;;;;;;;;11.57;68.02;102734.50;1267440;23;637;-69
2023/02/09 02:53:47;;;;;;;;;;;;;;;11.59;67.91;102735.31;1267396;23;622;-69
2023/02/09 02:54:38;;;;;;;;;;;;;;;11.58;67.74;102734.44;1267420;23;662;-69
2023/02/09 02:55:28;;;;;;;;;;;;;;;11.59;67.27;102729.97;1267401;23;602;-69
2023/02/09 02:56:18;;;;;;;;;;;;;;;11.60;67.76;102729.03;1267450;23;614;-69
2023/02/09 02:57:09;;;;;;;;;;;;;;;11.57;67.15;102732.69;1267611;23;621;-69
2023/02/09 02:57:59;;;;;;;;;;;;;;;11.58;67.26;102731.75;1267480;23;610;-69
2023/02/09 02:58:50;;;;;;;;;;;;;;;11.56;68.15;102730.06;1267372;23;704;-69
2023/02/09 02:59:40;;;;;;;;;;;;;;;11.53;67.98;102724.84;1267618;23;625;-69
2023/02/09 03:00:31;;;;;;;;;;;;;;;11.53;67.90;102732.84;1267221;23;657;-69
2023/02/09 03:01:21;;;;;;;;;;;;;;;11.53;67.37;102731.06;1267372;23;669;-68
2023/02/09 03:02:11;;;;;;;;;;;;;;;11.54;68.07;102734.59;1272368;23;629;-69
2023/02/09 03:03:02;;;;;;;;;;;;;;;11.53;67.57;102725.72;1273073;23;652;-69
2023/02/09 03:03:53;;;;;;;;;;;;;;;11.53;67.72;102732.84;1266750;23;685;-69
2023/02/09 03:04:44;;;;;;;;;;;;;;;11.47;68.23;102725.94;1273216;23;751;-69
2023/02/09 03:05:34;;;;;;;;;;;;;;;11.47;67.99;102731.28;1273173;23;684;-69
2023/02/09 03:06:24;;;;;;;;;;;;;;;11.48;67.25;102728.56;1266583;23;681;-69
2023/02/09 03:07:15;;;;;;;;;;;;;;;11.49;67.44;102730.31;1267016;23;1897;-69
2023/02/09 03:08:05;;;;;;;;;;;;;;;11.50;67.65;102731.16;1267399;23;654;-69
2023/02/09 03:08:56;;;;;;;;;;;;;;;11.51;67.96;102724.03;1267305;23;688;-69
2023/02/09 03:09:46;;;;;;;;;;;;;;;11.50;68.07;102728.50;1267385;23;653;-69
2023/02/09 03:10:37;;;;;;;;;;;;;;;11.48;67.68;102723.22;1267034;23;657;-69
2023/02/09 03:11:27;;;;;;;;;;;;;;;11.51;67.53;102721.38;1267322;23;642;-68
2023/02/09 03:12:18;;;;;;;;;;;;;;;11.53;67.69;102719.50;1267461;23;656;-68
2023/02/09 03:13:08;;;;;;;;;;;;;;;11.56;67.37;102719.41;1267364;23;638;-68
2023/02/09 03:13:58;;;;;;;;;;;;;;;11.58;67.35;102709.53;1267273;23;660;-68
2023/02/09 03:14:49;;;;;;;;;;;;;;;11.58;67.61;102701.53;1267245;23;653;-68
2023/02/09 03:15:39;;;;;;;;;;;;;;;11.56;67.49;102706.03;1267354;23;727;-68
2023/02/09 03:16:30;;;;;;;;;;;;;;;11.54;68.13;102706.09;1266707;23;613;-68
2023/02/09 03:17:20;;;;;;;;;;;;;;;11.52;67.44;102712.44;1267419;23;669;-69
2023/02/09 03:18:10;;;;;;;;;;;;;;;11.47;67.72;102716.13;1267260;23;665;-69
2023/02/09 03:19:01;;;;;;;;;;;;;;;11.43;67.83;102709.19;1267291;23;672;-68
2023/02/09 03:19:51;;;;;;;;;;;;;;;11.41;68.15;102705.72;1267231;23;626;-69
2023/02/09 03:20:42;;;;;;;;;;;;;;;11.42;67.70;102699.44;1267365;23;654;-68
2023/02/09 03:21:32;;;;;;;;;;;;;;;11.42;67.62;102701.25;1267256;23;657;-69
2023/02/09 03:22:23;;;;;;;;;;;;;;;11.45;67.80;102703.81;1267308;23;806;-68
2023/02/09 03:23:14;;;;;;;;;;;;;;;11.45;67.65;102690.47;1267325;23;618;-68
2023/02/09 03:24:04;;;;;;;;;;;;;;;11.44;67.64;102694.94;1267370;23;614;-69
2023/02/09 03:24:55;;;;;;;;;;;;;;;11.46;68.18;102697.53;1267327;23;614;-69
2023/02/09 03:25:45;;;;;;;;;;;;;;;11.45;67.98;102693.13;1267361;23;625;-69
2023/02/09 03:26:35;;;;;;;;;;;;;;;11.44;67.85;102691.38;1267152;23;633;-69
2023/02/09 03:27:26;;;;;;;;;;;;;;;11.44;67.11;102694.94;1267404;23;629;-69
2023/02/09 03:28:16;;;;;;;;;;;;;;;11.44;67.88;102694.06;1267268;23;669;-69
2023/02/09 03:29:07;;;;;;;;;;;;;;;11.44;67.66;102694.06;1268235;23;613;-69
2023/02/09 03:29:58;;;;;;;;;;;;;;;11.43;68.10;102693.19;1267382;23;618;-69
2023/02/09 03:30:49;;;;;;;;;;;;;;;11.44;67.35;102684.25;1266829;23;660;-69
2023/02/09 03:31:39;;;;;;;;;;;;;;;11.44;67.73;102689.59;1267401;23;633;-69
2023/02/09 03:32:30;;;;;;;;;;;;;;;11.44;68.06;102686.03;1267185;23;626;-69
2023/02/09 03:33:20;;;;;;;;;;;;;;;11.44;67.31;102683.38;1267190;23;613;-69
2023/02/09 03:34:11;;;;;;;;;;;;;;;11.46;67.31;102678.84;1267326;23;684;-69
2023/02/09 03:35:01;;;;;;;;;;;;;;;11.44;67.00;102686.91;1267350;23;665;-69
2023/02/09 03:35:51;;;;;;;;;;;;;;;11.45;67.52;102696.66;1267393;23;610;-69
2023/02/09 03:36:42;;;;;;;;;;;;;;;11.42;67.38;102691.44;1267353;23;688;-69
2023/02/09 03:37:33;;;;;;;;;;;;;;;11.41;68.15;102694.16;1267194;23;700;-69
2023/02/09 03:38:23;;;;;;;;;;;;;;;11.38;67.38;102692.47;1267418;23;634;-69
2023/02/09 03:39:14;;;;;;;;;;;;;;;11.38;67.49;102689.81;1267337;23;646;-68
2023/02/09 03:40:04;;;;;;;;;;;;;;;11.39;67.19;102685.34;1267377;23;629;-68
2023/02/09 03:40:54;;;;;;;;;;;;;;;11.40;68.05;102695.09;1267155;23;672;-68
2023/02/09 03:41:45;;;;;;;;;;;;;;;11.40;68.18;102690.63;1267352;23;692;-68
2023/02/09 03:42:35;;;;;;;;;;;;;;;11.41;67.75;102689.69;1267497;23;653;-68
2023/02/09 03:44:25;;;;;;;;;;;;;;;11.39;67.46;102691.56;1267252;23;605;-68
2023/02/09 03:44:36;;;;;;;;;;;;;;;11.40;67.78;102687.97;1267014;23;1533;-68
2023/02/09 03:45:26;;;;;;;;;;;;;;;11.39;67.23;102686.22;1266742;23;686;-68
2023/02/09 03:46:17;;;;;;;;;;;;;;;11.39;67.99;102686.22;1267335;23;649;-68
2023/02/09 03:47:07;;;;;;;;;;;;;;;11.40;67.47;102677.28;1267154;23;1909;-68
2023/02/09 03:47:58;;;;;;;;;;;;;;;11.40;67.80;102674.63;1267274;23;654;-68
2023/02/09 03:48:49;;;;;;;;;;;;;;;11.40;67.99;102677.28;1267323;23;630;-68
2023/02/09 03:49:39;;;;;;;;;;;;;;;11.41;67.85;102679.03;1267400;23;747;-68
2023/02/09 03:50:31;;;;;;;;;;;;;;;11.42;67.92;102686.09;1267241;23;622;-68
2023/02/09 03:51:21;;;;;;;;;;;;;;;11.41;67.28;102680.81;1267447;23;644;-68
2023/02/09 03:52:11;;;;;;;;;;;;;;;11.38;67.28;102691.63;1267310;23;606;-68
2023/02/09 03:53:05;;;;;;;;;;;;;;;11.38;67.48;102689.81;1267253;23;692;-68
2023/02/09 03:53:55;;;;;;;;;;;;;;;11.37;67.97;102681.88;1267154;23;617;-69
2023/02/09 03:54:46;;;;;;;;;;;;;;;11.34;67.34;102681.97;1267296;23;618;-68
2023/02/09 03:55:37;;;;;;;;;;;;;;;11.35;67.76;102689.06;1267374;23;618;-69
2023/02/09 03:56:27;;;;;;;;;;;;;;;11.34;67.59;102681.97;1267369;23;649;-69
2023/02/09 03:57:17;;;;;;;;;;;;;;;11.34;67.94;102680.19;1267297;23;673;-68
2023/02/09 03:58:08;;;;;;;;;;;;;;;11.34;67.89;102677.50;1267354;23;626;-69
2023/02/09 03:58:58;;;;;;;;;;;;;;;11.34;67.65;102671.31;1267411;23;646;-69
2023/02/09 03:59:49;;;;;;;;;;;;;;;11.33;67.48;102673.09;1266649;23;605;-69
2023/02/09 04:00:39;;;;;;;;;;;;;;;11.35;67.76;102678.38;1267291;23;626;-69
2023/02/09 04:01:32;;;;;;;;;;;;;;;11.31;67.81;102671.41;1267314;23;664;-69
2023/02/09 04:02:22;;;;;;;;;;;;;;;11.32;67.61;102674.03;1267298;23;654;-68
2023/02/09 04:03:13;;;;;;;;;;;;;;;11.33;67.61;102665.09;1272127;23;625;-69
2023/02/09 04:04:03;;;;;;;;;;;;;;;11.35;67.11;102671.25;1273068;23;665;-69
2023/02/09 04:04:53;;;;;;;;;;;;;;;11.36;68.05;102666.78;1267545;23;646;-69
2023/02/09 04:05:44;;;;;;;;;;;;;;;11.37;68.05;102668.50;1267282;23;642;-69
2023/02/09 04:06:34;;;;;;;;;;;;;;;11.37;67.68;102671.19;1267234;23;665;-69
2023/02/09 04:07:25;;;;;;;;;;;;;;;11.36;68.05;102681.00;1267237;23;748;-69
2023/02/09 04:08:15;;;;;;;;;;;;;;;11.36;67.43;102667.66;1267201;23;621;-68
2023/02/09 04:09:06;;;;;;;;;;;;;;;11.36;67.25;102675.66;1267293;23;665;-69
2023/02/09 04:09:57;;;;;;;;;;;;;;;11.35;67.93;102673.03;1267375;23;645;-68
2023/02/09 04:10:47;;;;;;;;;;;;;;;11.35;67.99;102670.38;1267262;23;602;-68
2023/02/09 04:11:38;;;;;;;;;;;;;;;11.33;67.74;102665.09;1267268;23;669;-69
2023/02/09 04:12:28;;;;;;;;;;;;;;;11.33;67.38;102667.75;1267260;23;665;-68
2023/02/09 04:13:18;;;;;;;;;;;;;;;11.30;67.52;102667.00;1267269;23;618;-69
2023/02/09 04:14:09;;;;;;;;;;;;;;;11.30;68.00;102661.66;1267312;23;824;-69
2023/02/09 04:14:59;;;;;;;;;;;;;;;11.29;67.33;102658.13;1267266;23;622;-69
2023/02/09 04:15:50;;;;;;;;;;;;;;;11.30;68.06;102669.66;1267153;23;712;-69
2023/02/09 04:16:40;;;;;;;;;;;;;;;11.29;68.05;102657.25;1267413;23;642;-69
2023/02/09 04:17:31;;;;;;;;;;;;;;;11.30;67.70;102661.66;1267274;23;630;-69
2023/02/09 04:18:21;;;;;;;;;;;;;;;11.31;67.52;102664.28;1267236;23;637;-69
2023/02/09 04:19:12;;;;;;;;;;;;;;;11.30;67.87;102670.53;1272166;23;621;-69
2023/02/09 04:20:02;;;;;;;;;;;;;;;11.32;67.64;102673.16;1272949;23;645;-69
2023/02/09 04:20:52;;;;;;;;;;;;;;;11.31;68.05;102671.41;1267435;23;681;-69
2023/02/09 04:21:43;;;;;;;;;;;;;;;11.28;67.71;102683.09;1267237;23;669;-69
2023/02/09 04:22:33;;;;;;;;;;;;;;;11.28;68.14;102687.56;1267159;23;851;-69
2023/02/09 04:23:24;;;;;;;;;;;;;;;11.29;67.53;102683.94;1267231;23;626;-69
2023/02/09 04:24:14;;;;;;;;;;;;;;;11.26;67.44;102679.63;1267132;23;618;-69
2023/02/09 04:25:05;;;;;;;;;;;;;;;11.24;67.46;102683.28;1267202;23;610;-68
2023/02/09 04:25:55;;;;;;;;;;;;;;;11.25;67.92;102679.69;1267214;23;642;-68
2023/02/09 04:26:45;;;;;;;;;;;;;;;11.23;68.21;102682.41;1267191;23;649;-69
2023/02/09 04:27:36;;;;;;;;;;;;;;;11.25;67.76;102683.22;1267258;23;621;-69
2023/02/09 04:28:26;;;;;;;;;;;;;;;11.26;67.14;102668.94;1267183;23;618;-69
2023/02/09 04:29:17;;;;;;;;;;;;;;;11.27;67.64;102681.38;1267177;23;614;-69